Time;durP1;ratioP1;P1;durP2;ratioP2;P2;SDS_P1;SDS_P2;PMS_P1;PMS_P2;Temp;Humidity;BMP_temperature;BMP_pressure;BME280_temperature;BME280_humidity;BME280_pressure;Samples;Min_cycle;Max_cycle;Signal;HPM_P1;HPM_P2
2023/01/14 00:01:22;;;;;;;2.13;0.55;;;;;;;7.82;99.05;100944.00;5050431;28;20045;-70
2023/01/14 00:03:49;;;;;;;1.13;0.30;;;;;;;7.77;98.51;100953.91;5048625;28;20038;-69
2023/01/14 00:06:18;;;;;;;2.55;0.40;;;;;;;7.72;97.90;100963.78;5069115;28;20041;-69
2023/01/14 00:08:44;;;;;;;2.05;0.35;;;;;;;7.66;96.97;100970.25;5051566;28;20028;-68
2023/01/14 00:11:13;;;;;;;4.00;0.52;;;;;;;7.56;97.69;100966.69;5051963;28;20045;-68
2023/01/14 00:13:41;;;;;;;1.60;0.30;;;;;;;7.51;97.37;100963.63;5037756;28;20045;-70
2023/01/14 00:16:10;;;;;;;1.10;0.40;;;;;;;7.47;97.59;100969.97;5050898;28;20071;-69
2023/01/14 00:18:35;;;;;;;3.38;0.68;;;;;;;7.43;97.11;100983.28;5051142;28;20036;-70
2023/01/14 00:21:06;;;;;;;1.45;0.57;;;;;;;7.38;96.62;100980.19;5054863;28;20035;-69
2023/01/14 00:23:33;;;;;;;1.50;0.80;;;;;;;7.34;97.09;100984.75;5051120;28;20115;-69
2023/01/14 00:26:18;;;;;;;1.70;0.82;;;;;;;7.27;95.20;100988.72;5050584;28;20062;-69
2023/01/14 00:28:48;;;;;;;1.55;0.82;;;;;;;7.19;96.78;100991.88;5050812;28;20365;-69
2023/01/14 00:31:16;;;;;;;1.88;0.85;;;;;;;7.17;96.65;100990.31;5055465;28;20025;-69
2023/01/14 00:33:43;;;;;;;2.80;1.05;;;;;;;7.12;97.21;101001.00;5051237;28;20464;-69
2023/01/14 00:36:10;;;;;;;2.17;0.80;;;;;;;7.11;96.23;101003.72;5051125;28;20043;-69
2023/01/14 00:38:37;;;;;;;1.55;0.77;;;;;;;7.13;95.50;101000.06;5054402;28;20166;-69
2023/01/14 00:41:08;;;;;;;3.50;0.95;;;;;;;7.10;93.99;101007.25;5058564;28;20044;-68
2023/01/14 00:43:36;;;;;;;1.30;0.70;;;;;;;7.02;96.02;101015.59;5048414;28;20021;-69
2023/01/14 00:46:05;;;;;;;2.33;0.77;;;;;;;6.85;97.34;101016.75;5051840;28;20040;-69
2023/01/14 00:48:32;;;;;;;3.05;0.60;;;;;;;6.74;98.08;101027.03;5049674;28;20537;-69
2023/01/14 00:50:57;;;;;;;2.85;0.60;;;;;;;6.58;99.48;101026.44;5049627;28;20503;-70
2023/01/14 00:53:23;;;;;;;1.67;0.60;;;;;;;6.42;100.00;101024.06;5050931;28;20044;-70
2023/01/14 00:55:49;;;;;;;2.08;0.77;;;;;;;6.38;100.00;101029.56;5044912;28;20484;-71
2023/01/14 00:58:16;;;;;;;1.10;0.50;;;;;;;6.29;100.00;101039.59;5048994;28;20048;-70
2023/01/14 01:00:43;;;;;;;1.50;0.73;;;;;;;6.22;100.00;101034.94;5055982;28;20070;-69
2023/01/14 01:03:09;;;;;;;2.60;0.70;;;;;;;6.17;100.00;101032.66;5055581;28;20096;-70
2023/01/14 01:05:36;;;;;;;1.60;0.60;;;;;;;6.16;100.00;101036.16;5049264;28;20384;-70
2023/01/14 01:08:04;;;;;;;1.83;0.75;;;;;;;6.09;100.00;101047.06;5050926;28;20421;-70
2023/01/14 01:10:30;;;;;;;1.48;0.50;;;;;;;5.97;100.00;101046.94;5050696;28;20033;-70
2023/01/14 01:12:56;;;;;;;3.15;0.50;;;;;;;5.90;100.00;101048.25;5054021;28;20488;-71
2023/01/14 01:15:22;;;;;;;1.33;0.60;;;;;;;5.87;100.00;101050.19;5052960;28;20567;-70
2023/01/14 01:17:48;;;;;;;1.75;0.77;;;;;;;5.80;100.00;101052.31;5050663;28;20029;-70
2023/01/14 01:20:14;;;;;;;9.95;2.22;;;;;;;5.73;100.00;101060.56;5051819;28;20040;-70
2023/01/14 01:22:40;;;;;;;4.53;1.15;;;;;;;5.63;100.00;101063.78;5047627;28;20025;-69
2023/01/14 01:25:06;;;;;;;5.35;2.13;;;;;;;5.54;100.00;101063.53;5050859;28;20352;-70
2023/01/14 01:27:34;;;;;;;7.57;2.40;;;;;;;5.48;100.00;101076.84;5047213;28;20033;-69
2023/01/14 01:29:59;;;;;;;4.32;1.50;;;;;;;5.38;100.00;101078.34;5052265;28;20059;-69
2023/01/14 01:32:26;;;;;;;9.38;2.45;;;;;;;5.27;100.00;101072.09;5048718;28;20453;-69
2023/01/14 01:34:51;;;;;;;4.60;0.80;;;;;;;5.22;100.00;101070.72;5051772;28;20057;-70
2023/01/14 01:37:17;;;;;;;4.20;1.10;;;;;;;5.16;100.00;101063.38;5050804;28;20106;-69
2023/01/14 01:39:44;;;;;;;2.25;0.80;;;;;;;5.10;100.00;101069.75;5048519;28;20120;-69
2023/01/14 01:42:15;;;;;;;2.50;0.80;;;;;;;5.01;100.00;101070.31;5050498;28;20021;-69
2023/01/14 01:44:41;;;;;;;1.75;0.80;;;;;;;4.94;100.00;101079.34;5050023;28;20036;-69
2023/01/14 01:47:08;;;;;;;3.50;1.10;;;;;;;4.82;100.00;101080.91;5049591;28;20033;-70
2023/01/14 01:49:37;;;;;;;7.13;3.15;;;;;;;4.76;100.00;101091.59;5048963;28;20443;-69
2023/01/14 01:52:30;;;;;;;8.45;3.08;;;;;;;4.72;100.00;101092.75;5050060;28;20123;-70
2023/01/14 01:55:08;;;;;;;8.57;2.47;;;;;;;4.75;100.00;101105.44;5048018;28;20037;-69
2023/01/14 01:57:36;;;;;;;8.05;2.30;;;;;;;4.83;100.00;101105.81;5048795;28;20131;-69
2023/01/14 02:00:07;;;;;;;5.78;1.98;;;;;;;4.79;100.00;101096.59;5061916;28;20033;-69
2023/01/14 02:02:33;;;;;;;7.38;2.35;;;;;;;4.71;100.00;101103.97;5048451;28;20447;-69
2023/01/14 02:05:00;;;;;;;4.97;1.77;;;;;;;4.60;100.00;101103.78;5048132;28;20086;-69
2023/01/14 02:07:27;;;;;;;5.22;1.92;;;;;;;4.59;100.00;101113.28;5049939;28;20035;-69
2023/01/14 02:09:59;;;;;;;5.45;1.50;;;;;;;4.59;100.00;101115.03;5049885;28;20028;-69
2023/01/14 02:12:55;;;;;;;5.80;1.15;;;;;;;4.51;100.00;101127.53;5052095;28;20156;-69
2023/01/14 02:15:30;;;;;;;4.95;1.05;;;;;;;4.49;100.00;101121.66;5050899;28;20072;-69
2023/01/14 02:18:24;;;;;;;1.98;0.90;;;;;;;4.43;100.00;101125.41;5051540;28;20368;-69
2023/01/14 02:21:01;;;;;;;4.35;1.13;;;;;;;4.42;100.00;101118.59;5047188;28;20044;-68
2023/01/14 02:24:05;;;;;;;2.15;1.10;;;;;;;4.44;100.00;101121.09;5045756;28;20024;-69
2023/01/14 02:26:59;;;;;;;3.65;0.80;;;;;;;4.53;100.00;101120.53;5047562;28;20044;-68
2023/01/14 02:29:49;;;;;;;1.58;0.70;;;;;;;4.51;100.00;101124.97;5051144;28;20465;-69
2023/01/14 02:32:34;;;;;;;2.40;1.00;;;;;;;4.50;100.00;101131.03;5052303;28;20041;-69
2023/01/14 02:35:39;;;;;;;3.08;0.70;;;;;;;4.39;100.00;101133.41;5046358;28;20120;-69
2023/01/14 02:38:16;;;;;;;2.20;0.70;;;;;;;4.32;100.00;101122.63;5046669;28;20025;-69
2023/01/14 02:40:49;;;;;;;2.65;0.80;;;;;;;4.23;100.00;101131.75;5047091;28;20067;-70
2023/01/14 02:46:29;;;;;;;3.30;0.98;;;;;;;4.14;100.00;101124.53;5048353;28;20052;-69
2023/01/14 02:48:56;;;;;;;2.80;0.85;;;;;;;4.11;100.00;101123.88;5047309;28;20485;-70
2023/01/14 02:51:23;;;;;;;2.80;1.13;;;;;;;4.05;100.00;101135.34;5047569;28;20141;-70
2023/01/14 02:53:49;;;;;;;3.95;1.70;;;;;;;4.05;100.00;101140.50;5047925;28;20037;-69
2023/01/14 02:56:15;;;;;;;6.25;1.80;;;;;;;4.00;100.00;101142.50;5048909;28;20086;-69
2023/01/14 02:59:07;;;;;;;2.22;0.95;;;;;;;3.98;100.00;101146.91;5048056;28;20087;-68
2023/01/14 03:01:39;;;;;;;2.05;0.98;;;;;;;3.89;100.00;101150.00;5047689;28;20063;-70
2023/01/14 03:04:37;;;;;;;2.08;0.98;;;;;;;3.80;100.00;101155.66;5049001;28;20495;-68
2023/01/14 03:07:12;;;;;;;3.22;1.23;;;;;;;3.78;100.00;101150.59;5044642;28;20029;-69
2023/01/14 03:09:59;;;;;;;2.15;0.80;;;;;;;3.74;100.00;101153.44;5047376;28;20077;-69
2023/01/14 03:12:46;;;;;;;2.58;1.35;;;;;;;3.70;100.00;101152.78;5049639;28;20024;-69
2023/01/14 03:15:33;;;;;;;2.40;1.45;;;;;;;3.72;100.00;101150.13;5051193;28;20033;-70
2023/01/14 03:18:22;;;;;;;2.08;0.90;;;;;;;4.19;100.00;101150.88;5047716;28;20108;-69
2023/01/14 03:21:33;;;;;;;4.25;0.65;;;;;;;4.47;100.00;101159.59;5040155;28;20468;-70
2023/01/14 03:24:06;;;;;;;2.72;0.75;;;;;;;4.57;100.00;101160.75;5047450;28;20479;-69
2023/01/14 03:26:34;;;;;;;3.65;0.82;;;;;;;4.47;100.00;101164.78;5047590;28;20436;-69
2023/01/14 03:29:05;;;;;;;2.47;1.00;;;;;;;4.43;100.00;101171.03;5048682;28;20029;-69
2023/01/14 03:31:37;;;;;;;1.30;0.50;;;;;;;4.59;100.00;101185.53;5049784;28;20039;-69
2023/01/14 03:34:10;;;;;;;1.40;0.55;;;;;;;4.85;100.00;101194.34;5049281;28;20452;-69
2023/01/14 03:36:39;;;;;;;1.42;0.40;;;;;;;4.94;100.00;101196.38;5043075;28;20056;-69
2023/01/14 03:39:10;;;;;;;3.05;1.42;;;;;;;4.97;100.00;101193.63;5046571;28;20068;-69
2023/01/14 03:44:47;;;;;;;1.92;0.70;;;;;;;4.72;100.00;101193.41;5047435;28;20119;-70
2023/01/14 03:47:13;;;;;;;1.15;0.40;;;;;;;4.50;100.00;101193.81;5048183;28;20059;-68
2023/01/14 03:49:39;;;;;;;1.75;0.68;;;;;;;4.42;100.00;101195.16;5046227;28;20138;-69
2023/01/14 03:52:17;;;;;;;2.35;0.73;;;;;;;4.32;100.00;101198.25;5052790;28;20032;-69
2023/01/14 03:55:10;;;;;;;9.13;2.03;;;;;;;4.61;100.00;101196.59;5052616;28;20044;-69
2023/01/14 03:57:45;;;;;;;9.68;1.98;;;;;;;5.00;100.00;101208.94;5029073;28;20118;-69
2023/01/14 04:00:18;;;;;;;3.83;0.95;;;;;;;5.24;100.00;101205.78;5049983;28;20021;-69
2023/01/14 04:02:45;;;;;;;2.85;0.95;;;;;;;5.27;100.00;101196.09;5046430;28;20028;-69
2023/01/14 04:05:11;;;;;;;2.00;0.77;;;;;;;5.16;100.00;101200.28;5035776;28;20044;-69
2023/01/14 04:07:36;;;;;;;3.97;0.73;;;;;;;5.16;100.00;101210.63;5037609;28;20029;-69
2023/01/14 04:10:02;;;;;;;5.25;0.98;;;;;;;5.08;100.00;101221.41;5038729;28;20033;-69
2023/01/14 04:12:28;;;;;;;3.72;1.33;;;;;;;4.94;100.00;101219.63;5034306;28;20064;-69
2023/01/14 04:17:37;;;;;;;1.50;0.40;;;;;;;5.02;100.00;101231.25;5036586;28;20177;-69
2023/01/14 04:20:05;;;;;;;2.00;0.70;;;;;;;5.08;100.00;101230.91;5035373;28;20025;-69
2023/01/14 04:22:30;;;;;;;2.50;0.50;;;;;;;5.10;100.00;101232.47;5035491;28;20039;-69
2023/01/14 04:24:55;;;;;;;0.95;0.40;;;;;;;5.09;100.00;101240.31;5037286;28;20485;-69
2023/01/14 04:27:21;;;;;;;1.63;0.40;;;;;;;5.03;100.00;101253.59;5036282;28;20465;-69
2023/01/14 04:29:47;;;;;;;4.55;0.65;;;;;;;4.98;100.00;101251.25;5035575;28;20037;-69
2023/01/14 04:32:12;;;;;;;4.65;1.00;;;;;;;4.93;100.00;101245.53;5036952;28;20033;-69
2023/01/14 04:34:38;;;;;;;1.13;0.40;;;;;;;4.93;100.00;101251.53;5035603;28;20041;-69
2023/01/14 04:37:03;;;;;;;2.67;0.47;;;;;;;4.89;100.00;101246.63;5035942;28;20468;-69
2023/01/14 04:39:29;;;;;;;3.17;0.80;;;;;;;4.80;100.00;101255.72;5037610;28;20041;-69
2023/01/14 04:44:38;;;;;;;1.90;0.70;;;;;;;4.76;100.00;101267.16;5035456;28;20407;-70
2023/01/14 04:47:03;;;;;;;1.73;0.50;;;;;;;4.85;100.00;101281.28;5044759;28;20034;-69
2023/01/14 04:49:29;;;;;;;2.00;0.57;;;;;;;4.85;100.00;101265.81;5050956;28;20053;-68
2023/01/14 04:51:54;;;;;;;3.03;0.50;;;;;;;4.88;100.00;101268.22;5041594;28;20067;-69
2023/01/14 04:54:20;;;;;;;3.92;0.52;;;;;;;4.86;100.00;101278.63;5039343;28;20116;-69
2023/01/14 04:56:45;;;;;;;1.83;0.50;;;;;;;4.86;100.00;101267.47;5037759;28;20094;-69
2023/01/14 04:59:11;;;;;;;1.85;0.55;;;;;;;4.76;100.00;101276.66;5038171;28;20115;-70
2023/01/14 05:01:36;;;;;;;1.52;0.40;;;;;;;4.69;100.00;101285.69;5041133;28;20032;-70
2023/01/14 05:04:03;;;;;;;1.23;0.50;;;;;;;4.79;100.00;101277.31;5036998;28;20468;-68
2023/01/14 05:06:29;;;;;;;2.30;0.60;;;;;;;4.76;100.00;101272.31;5036496;28;20045;-69
2023/01/14 05:08:55;;;;;;;1.45;0.70;;;;;;;4.75;100.00;101272.41;5037636;28;20060;-68
2023/01/14 05:11:20;;;;;;;3.30;0.55;;;;;;;4.80;100.00;101278.13;5038602;28;20032;-70
2023/01/14 05:13:46;;;;;;;2.60;0.40;;;;;;;4.82;100.00;101286.63;5044215;28;20183;-69
2023/01/14 05:16:11;;;;;;;4.00;0.68;;;;;;;4.77;100.00;101294.63;5051946;28;20041;-69
2023/01/14 05:18:37;;;;;;;3.20;0.60;;;;;;;4.72;100.00;101293.25;5053790;28;20047;-69
2023/01/14 05:21:02;;;;;;;1.63;0.40;;;;;;;4.65;100.00;101287.59;5048277;28;20025;-69
2023/01/14 05:23:28;;;;;;;1.13;0.40;;;;;;;4.59;100.00;101288.78;5038556;28;20052;-69
2023/01/14 05:25:53;;;;;;;1.00;0.40;;;;;;;4.69;100.00;101289.09;5037352;28;20054;-69
2023/01/14 05:28:20;;;;;;;1.90;0.45;;;;;;;4.74;100.00;101292.22;5037737;28;20078;-69
2023/01/14 05:30:46;;;;;;;2.05;0.60;;;;;;;4.67;100.00;101293.53;5037696;28;20032;-69
2023/01/14 05:33:12;;;;;;;2.17;0.80;;;;;;;4.56;100.00;101290.69;5039196;28;20129;-69
2023/01/14 05:35:38;;;;;;;1.92;0.90;;;;;;;4.56;100.00;101298.44;5036493;28;20676;-69
2023/01/14 05:38:05;;;;;;;2.72;0.75;;;;;;;4.52;100.00;101295.19;5037458;28;20041;-69
2023/01/14 05:40:31;;;;;;;3.13;0.60;;;;;;;4.56;100.00;101291.53;5036730;28;20309;-69
2023/01/14 05:45:51;;;;;;;3.88;1.17;;;;;;;4.59;100.00;101301.69;5002551;28;20041;-70
2023/01/14 05:48:23;;;;;;;2.25;0.77;;;;;;;4.37;100.00;101303.78;5037523;28;20040;-70
2023/01/14 05:50:53;;;;;;;3.38;1.48;;;;;;;4.38;100.00;101295.13;5038392;28;20086;-69
2023/01/14 05:53:19;;;;;;;2.10;0.50;;;;;;;4.41;100.00;101305.28;5037824;28;20041;-69
2023/01/14 05:55:45;;;;;;;2.45;0.45;;;;;;;4.47;100.00;101304.13;5037248;28;20044;-69
2023/01/14 05:58:11;;;;;;;1.45;0.40;;;;;;;4.45;100.00;101305.94;5037147;28;20158;-69
2023/01/14 06:06:22;;;;;;;;;;;;;;;4.27;100.00;101307.78;5037931;28;20534;-69
2023/01/14 06:08:59;;;;;;;2.42;0.60;;;;;;;4.20;100.00;101312.47;5036531;28;19924;-70
2023/01/14 06:11:27;;;;;;;1.90;0.70;;;;;;;4.17;100.00;101316.97;5035618;28;20078;-69
2023/01/14 06:13:57;;;;;;;7.30;3.22;;;;;;;4.07;100.00;101316.63;5038982;28;20154;-70
2023/01/14 06:16:27;;;;;;;13.93;7.38;;;;;;;3.91;100.00;101323.50;5035932;28;20374;-70
2023/01/14 06:18:53;;;;;;;8.45;4.78;;;;;;;3.81;100.00;101312.81;5037656;28;20115;-70
2023/01/14 06:21:21;;;;;;;5.07;2.25;;;;;;;3.88;100.00;101319.31;5034864;28;20087;-68
2023/01/14 06:23:47;;;;;;;2.47;1.17;;;;;;;3.97;100.00;101330.91;5036638;28;20033;-69
2023/01/14 06:26:16;;;;;;;3.28;1.10;;;;;;;4.02;100.00;101336.66;5036331;28;20512;-69
2023/01/14 06:28:42;;;;;;;2.28;0.90;;;;;;;4.07;100.00;101342.41;5035990;28;20464;-69
2023/01/14 06:31:13;;;;;;;3.88;0.90;;;;;;;4.09;100.00;101340.56;5037265;28;20044;-69
2023/01/14 06:33:38;;;;;;;2.50;1.13;;;;;;;4.14;100.00;101333.44;5038061;28;20478;-69
2023/01/14 06:36:05;;;;;;;1.88;0.82;;;;;;;4.10;100.00;101331.94;5036556;28;20037;-69
2023/01/14 06:38:30;;;;;;;3.08;1.00;;;;;;;4.09;100.00;101327.69;5035736;28;20123;-69
2023/01/14 06:41:03;;;;;;;2.67;0.73;;;;;;;4.13;100.00;101329.19;5018617;28;20040;-69
2023/01/14 06:43:29;;;;;;;2.72;0.60;;;;;;;4.09;100.00;101327.69;5035638;28;20119;-69
2023/01/14 06:45:56;;;;;;;3.60;1.05;;;;;;;4.17;100.00;101325.53;5036408;28;20087;-69
2023/01/14 06:48:22;;;;;;;2.42;0.82;;;;;;;4.22;100.00;101326.13;5037338;28;20480;-70
2023/01/14 06:50:49;;;;;;;3.47;1.17;;;;;;;4.20;100.00;101334.84;5035902;28;21515;-69
2023/01/14 06:53:14;;;;;;;3.42;0.95;;;;;;;4.23;100.00;101332.94;5036226;28;20037;-69
2023/01/14 06:55:40;;;;;;;2.90;1.00;;;;;;;4.24;100.00;101341.50;5035468;28;20123;-69
2023/01/14 06:58:05;;;;;;;2.58;0.90;;;;;;;4.25;100.00;101346.56;5037674;28;20028;-68
2023/01/14 07:00:32;;;;;;;1.92;0.70;;;;;;;4.34;100.00;101340.91;5042776;28;20124;-70
2023/01/14 07:02:57;;;;;;;4.93;0.90;;;;;;;4.40;100.00;101351.81;5050160;28;20032;-68
2023/01/14 07:05:24;;;;;;;2.45;0.80;;;;;;;4.34;100.00;101343.47;5048138;28;20024;-70
2023/01/14 07:07:49;;;;;;;2.42;0.80;;;;;;;4.35;100.00;101346.91;5049883;28;20033;-69
2023/01/14 07:10:16;;;;;;;2.85;0.88;;;;;;;4.36;100.00;101358.06;5053305;28;20040;-68
2023/01/14 07:12:47;;;;;;;2.63;1.30;;;;;;;4.37;100.00;101357.97;5048540;28;20077;-69
2023/01/14 07:15:13;;;;;;;5.03;1.20;;;;;;;4.39;100.00;101361.28;5048765;28;20447;-69
2023/01/14 07:17:39;;;;;;;4.03;1.33;;;;;;;4.32;100.00;101365.94;5045066;28;20049;-69
2023/01/14 07:20:08;;;;;;;3.78;1.02;;;;;;;4.33;100.00;101366.78;5047549;28;20127;-69
2023/01/14 07:22:34;;;;;;;4.13;0.73;;;;;;;4.36;100.00;101374.38;5048132;28;20056;-70
2023/01/14 07:25:02;;;;;;;2.22;0.57;;;;;;;4.40;100.00;101369.88;5046873;28;20429;-68
2023/01/14 07:27:31;;;;;;;4.28;1.05;;;;;;;4.45;100.00;101370.47;5048666;28;20098;-69
2023/01/14 07:29:56;;;;;;;2.50;0.90;;;;;;;4.48;100.00;101365.13;5049175;28;20358;-70
2023/01/14 07:32:23;;;;;;;2.42;0.70;;;;;;;4.54;100.00;101360.47;5046491;28;20090;-68
2023/01/14 07:34:49;;;;;;;1.73;0.65;;;;;;;4.59;100.00;101358.47;5050130;28;20037;-69
2023/01/14 07:37:14;;;;;;;7.75;0.70;;;;;;;4.69;100.00;101358.81;5048461;28;20025;-69
2023/01/14 07:39:40;;;;;;;4.38;1.67;;;;;;;4.76;100.00;101365.25;5048089;28;20541;-70
2023/01/14 07:42:05;;;;;;;1.98;0.80;;;;;;;4.78;100.00;101373.75;5046352;28;20025;-69
2023/01/14 07:44:31;;;;;;;2.70;0.80;;;;;;;4.79;100.00;101380.59;5046825;28;20045;-69
2023/01/14 07:46:57;;;;;;;2.55;0.50;;;;;;;4.80;100.00;101379.66;5046387;28;20033;-69
2023/01/14 07:49:24;;;;;;;1.50;0.55;;;;;;;4.84;100.00;101382.91;5048473;28;20147;-69
2023/01/14 07:51:51;;;;;;;4.68;0.40;;;;;;;4.91;100.00;101385.06;5046370;28;20032;-69
2023/01/14 07:54:18;;;;;;;1.73;0.90;;;;;;;4.92;100.00;101381.56;5042592;28;20044;-69
2023/01/14 07:56:43;;;;;;;1.95;0.80;;;;;;;5.02;100.00;101371.56;5046791;28;20021;-69
2023/01/14 07:59:09;;;;;;;2.22;0.60;;;;;;;5.07;100.00;101381.63;5048027;28;20028;-69
2023/01/14 08:01:35;;;;;;;2.80;0.80;;;;;;;5.08;100.00;101375.56;5047637;28;20087;-69
2023/01/14 08:04:00;;;;;;;4.10;1.10;;;;;;;5.10;100.00;101381.47;5048381;28;20033;-69
2023/01/14 08:06:27;;;;;;;1.45;0.50;;;;;;;5.11;100.00;101377.97;5045842;28;20044;-69
2023/01/14 08:08:53;;;;;;;1.52;0.50;;;;;;;5.16;100.00;101368.19;5044674;28;20036;-69
2023/01/14 08:11:18;;;;;;;4.47;0.60;;;;;;;5.18;100.00;101367.19;5051948;28;20040;-69
2023/01/14 08:13:44;;;;;;;2.00;0.50;;;;;;;5.22;100.00;101376.41;5045318;28;20041;-69
2023/01/14 08:16:10;;;;;;;2.00;0.82;;;;;;;5.26;100.00;101370.13;5048268;28;20021;-68
2023/01/14 08:18:36;;;;;;;1.38;0.40;;;;;;;5.33;100.00;101380.97;5045929;28;20073;-68
2023/01/14 08:21:04;;;;;;;1.10;0.43;;;;;;;5.36;100.00;101385.94;5049627;28;20035;-69
2023/01/14 08:23:31;;;;;;;2.95;0.50;;;;;;;5.43;100.00;101381.25;5051316;28;20476;-69
2023/01/14 08:26:04;;;;;;;3.08;0.60;;;;;;;5.51;100.00;101387.66;5053248;28;20086;-69
2023/01/14 08:28:30;;;;;;;4.57;0.85;;;;;;;5.53;100.00;101392.72;5053693;28;20488;-69
2023/01/14 08:31:01;;;;;;;1.73;0.50;;;;;;;5.57;100.00;101401.97;5052884;28;20044;-70
2023/01/14 08:33:27;;;;;;;1.80;0.55;;;;;;;5.59;100.00;101393.22;5051499;28;20037;-69
2023/01/14 08:35:53;;;;;;;3.38;0.80;;;;;;;5.65;100.00;101398.03;5050057;28;20167;-68
2023/01/14 08:38:18;;;;;;;2.13;0.90;;;;;;;5.71;100.00;101407.16;5049588;28;20201;-68
2023/01/14 08:40:44;;;;;;;2.88;0.80;;;;;;;5.81;100.00;101407.44;5050334;28;20033;-69
2023/01/14 08:43:09;;;;;;;1.30;0.80;;;;;;;5.90;100.00;101412.94;5049529;28;20094;-70
2023/01/14 08:45:34;;;;;;;1.50;0.45;;;;;;;5.87;100.00;101401.91;5051090;28;20039;-66
2023/01/14 08:48:00;;;;;;;1.63;0.40;;;;;;;5.88;100.00;101408.75;5049316;28;20036;-69
2023/01/14 08:50:25;;;;;;;1.73;0.63;;;;;;;5.93;100.00;101411.91;5051405;28;20044;-69
2023/01/14 08:52:51;;;;;;;4.13;1.08;;;;;;;6.01;100.00;101414.06;5052760;28;20028;-68
2023/01/14 08:55:16;;;;;;;1.98;0.57;;;;;;;6.11;99.58;101415.16;5056706;28;20028;-69
2023/01/14 08:57:42;;;;;;;1.52;0.50;;;;;;;6.24;97.82;101411.72;5051425;28;20046;-68
2023/01/14 09:00:09;;;;;;;1.60;0.40;;;;;;;6.29;97.92;101420.03;5050845;28;20025;-69
2023/01/14 09:02:34;;;;;;;2.17;0.40;;;;;;;6.36;97.75;101420.50;5053153;28;20028;-68
2023/01/14 09:05:01;;;;;;;4.22;0.50;;;;;;;6.43;96.13;101426.97;5054174;28;20032;-70
2023/01/14 09:18:23;;;;;;;2.92;0.75;;;;;;;6.82;95.55;101459.06;5049834;28;20428;-68
2023/01/14 09:20:48;;;;;;;1.73;0.40;;;;;;;6.91;95.37;101461.91;5050073;28;20056;-69
2023/01/14 09:23:14;;;;;;;1.02;0.45;;;;;;;7.01;95.49;101474.28;5047853;28;20037;-69
2023/01/14 09:25:43;;;;;;;6.32;0.90;;;;;;;6.99;95.14;101475.22;5044609;28;20033;-69
2023/01/14 09:28:10;;;;;;;1.20;0.45;;;;;;;7.05;95.00;101473.16;5047340;28;20041;-68
2023/01/14 09:30:45;;;;;;;2.28;0.70;;;;;;;7.13;93.28;101479.50;5046028;28;20033;-69
2023/01/14 09:33:13;;;;;;;3.65;0.73;;;;;;;7.21;93.81;101477.25;5051373;28;20124;-69
2023/01/14 09:35:39;;;;;;;3.85;0.77;;;;;;;7.32;93.60;101476.56;5049045;28;20574;-69
2023/01/14 09:38:05;;;;;;;2.40;0.60;;;;;;;7.49;92.08;101478.09;5048556;28;20029;-69
2023/01/14 09:40:40;;;;;;;1.38;0.50;;;;;;;7.61;90.16;101474.66;5045172;28;20037;-68
2023/01/14 09:43:15;;;;;;;1.42;0.57;;;;;;;7.67;89.86;101469.06;5049778;28;20040;-66
2023/01/14 09:45:42;;;;;;;3.50;0.50;;;;;;;7.60;91.82;101468.66;5048645;28;20036;-68
2023/01/14 09:48:22;;;;;;;2.60;0.50;;;;;;;7.55;90.60;101475.94;5052337;28;20469;-70
2023/01/14 09:51:16;;;;;;;1.42;0.47;;;;;;;7.65;89.88;101469.16;5049492;28;20045;-68
2023/01/14 09:54:20;;;;;;;6.13;0.70;;;;;;;7.84;88.17;101467.97;5048390;28;20029;-68
2023/01/14 09:57:29;;;;;;;7.68;1.95;;;;;;;8.04;86.76;101469.19;5051452;28;20033;-69
2023/01/14 10:00:01;;;;;;;9.30;2.97;;;;;;;8.14;88.67;101465.88;5047056;28;20054;-69
2023/01/14 10:03:10;;;;;;;7.50;3.70;;;;;;;8.15;86.52;101464.13;5049425;28;20381;-69
2023/01/14 10:05:39;;;;;;;18.17;7.50;;;;;;;8.24;88.66;101459.13;5056755;28;20048;-67
2023/01/14 10:08:12;;;;;;;18.10;7.00;;;;;;;8.28;87.73;101452.78;5049789;28;20376;-70
2023/01/14 10:10:50;;;;;;;21.63;9.43;;;;;;;8.37;85.81;101450.53;5048899;28;20057;-71
2023/01/14 10:13:25;;;;;;;11.32;3.92;;;;;;;8.30;87.54;101445.72;5045327;28;20048;-69
2023/01/14 10:16:03;;;;;;;5.22;1.92;;;;;;;8.41;86.20;101454.56;5045039;28;20028;-67
2023/01/14 10:18:39;;;;;;;3.67;1.80;;;;;;;8.49;86.38;101457.47;5049096;28;20029;-69
2023/01/14 10:21:23;;;;;;;6.85;2.53;;;;;;;8.45;86.60;101456.03;5046846;28;20029;-70
2023/01/14 10:23:48;;;;;;;4.43;1.50;;;;;;;8.59;86.73;101448.09;5040300;28;20024;-69
2023/01/14 10:26:18;;;;;;;4.13;1.58;;;;;;;8.57;87.22;101455.16;5055758;28;20369;-69
2023/01/14 10:28:48;;;;;;;1.95;0.95;;;;;;;8.65;86.17;101447.66;5048883;28;20115;-70
2023/01/14 10:31:47;;;;;;;2.05;0.60;;;;;;;8.73;82.74;101447.13;5048708;28;20037;-70
2023/01/14 10:34:20;;;;;;;2.33;1.08;;;;;;;8.74;86.80;101439.22;5037503;28;20135;-70
2023/01/14 10:36:46;;;;;;;7.38;2.90;;;;;;;8.91;85.75;101438.84;5047222;28;20460;-70
2023/01/14 10:39:13;;;;;;;3.88;1.20;;;;;;;9.04;83.93;101443.97;5049403;28;20040;-73
2023/01/14 10:41:50;;;;;;;1.35;0.40;;;;;;;9.14;83.13;101451.94;5049924;28;20025;-72
2023/01/14 10:44:29;;;;;;;1.58;0.50;;;;;;;9.25;82.67;101441.59;5048292;28;20040;-69
2023/01/14 10:47:03;;;;;;;1.52;0.50;;;;;;;9.21;81.75;101429.75;5044932;28;20116;-67
2023/01/14 10:49:52;;;;;;;1.15;0.40;;;;;;;9.19;80.59;101432.47;5040659;28;20060;-69
2023/01/14 10:52:31;;;;;;;0.60;0.30;;;;;;;9.24;82.73;101432.13;5045860;28;20055;-69
2023/01/14 10:55:00;;;;;;;1.17;0.30;;;;;;;9.31;82.19;101426.38;5047287;28;20041;-69
2023/01/14 10:57:36;;;;;;;3.80;0.52;;;;;;;9.43;81.72;101423.81;5043214;28;20095;-69
2023/01/14 11:00:08;;;;;;;1.88;0.20;;;;;;;9.46;82.58;101413.16;5045440;28;20465;-69
2023/01/14 11:02:38;;;;;;;1.25;0.32;;;;;;;9.39;82.20;101414.56;5048854;28;20166;-69
2023/01/14 11:05:41;;;;;;;0.95;0.20;;;;;;;9.51;81.78;101413.63;5048523;28;20028;-69
2023/01/14 11:08:37;;;;;;;1.88;0.25;;;;;;;9.37;81.34;101408.66;4995120;28;20037;-69
2023/01/14 11:11:09;;;;;;;0.65;0.25;;;;;;;9.26;83.69;101401.63;4984776;28;20042;-69
2023/01/14 11:13:41;;;;;;;1.20;0.40;;;;;;;9.44;82.57;101400.28;4987646;28;20045;-70
2023/01/14 11:16:25;;;;;;;1.52;0.40;;;;;;;9.74;77.70;101396.31;4989245;28;20077;-69
2023/01/14 11:19:01;;;;;;;5.40;1.85;;;;;;;9.75;79.37;101405.78;4987791;28;20030;-69
2023/01/14 11:21:41;;;;;;;1.70;0.70;;;;;;;9.63;80.54;101395.34;4988791;28;20059;-68
2023/01/14 11:24:28;;;;;;;2.88;0.57;;;;;;;9.57;78.29;101387.16;4985091;28;20085;-68
2023/01/14 11:27:06;;;;;;;0.90;0.20;;;;;;;9.77;76.54;101377.84;4977217;28;20205;-68
2023/01/14 11:29:37;;;;;;;0.57;0.20;;;;;;;9.86;78.48;101377.16;4988849;28;20137;-68
2023/01/14 11:32:11;;;;;;;2.05;0.25;;;;;;;9.83;78.70;101380.00;4986931;28;20467;-68
2023/01/14 11:35:00;;;;;;;1.20;0.28;;;;;;;9.73;75.67;101377.25;4984970;28;20050;-67
2023/01/14 11:37:44;;;;;;;2.78;0.40;;;;;;;9.66;76.97;101389.06;4986370;28;20026;-69
2023/01/14 11:40:21;;;;;;;0.95;0.25;;;;;;;9.72;77.06;101377.38;4987015;28;20081;-68
2023/01/14 11:42:47;;;;;;;0.70;0.20;;;;;;;9.85;78.30;101365.91;5035211;28;20037;-69
2023/01/14 11:45:12;;;;;;;3.00;0.40;;;;;;;9.83;78.54;101369.59;5048729;28;20048;-68
2023/01/14 11:47:54;;;;;;;2.40;0.40;;;;;;;9.74;77.71;101368.50;5047648;28;20526;-68
2023/01/14 11:50:21;;;;;;;1.73;0.55;;;;;;;9.75;78.73;101374.53;5047508;28;20044;-68
2023/01/14 11:53:16;;;;;;;0.93;0.30;;;;;;;9.70;76.20;101371.47;5048270;28;20029;-68
2023/01/14 11:55:44;;;;;;;0.70;0.30;;;;;;;9.67;80.11;101363.88;5029842;28;20515;-68
2023/01/14 11:58:26;;;;;;;0.90;0.20;;;;;;;9.58;79.53;101350.63;5052530;28;20379;-69
2023/01/14 12:00:56;;;;;;;0.57;0.20;;;;;;;9.61;79.15;101344.38;5049415;28;20029;-68
2023/01/14 12:03:41;;;;;;;0.73;0.20;;;;;;;9.72;77.00;101341.78;5051676;28;20129;-68
2023/01/14 12:06:12;;;;;;;1.05;0.20;;;;;;;9.84;77.39;101334.81;5052095;28;20391;-68
2023/01/14 12:08:41;;;;;;;1.45;0.20;;;;;;;9.87;78.12;101339.78;5051805;28;20476;-69
2023/01/14 12:11:16;;;;;;;0.50;0.20;;;;;;;9.80;77.63;101342.03;5051800;28;20350;-68
2023/01/14 12:16:50;;;;;;;0.82;0.20;;;;;;;9.88;77.83;101341.44;5052261;28;20499;-68
2023/01/14 12:19:48;;;;;;;0.38;0.10;;;;;;;9.92;75.78;101341.03;5052164;28;20064;-68
2023/01/14 12:22:28;;;;;;;0.50;0.20;;;;;;;9.88;77.84;101346.63;5050865;28;20035;-68